createdAt,value
2023-03-25T10:35:36.410Z,62.0
2023-03-25T10:50:36.408Z,58.0
2023-03-25T11:05:36.416Z,60.0
2023-03-25T11:20:36.414Z,57.0
2023-03-25T11:35:36.454Z,55.0
2023-03-25T11:50:36.426Z,53.0
2023-03-25T12:05:36.456Z,52.0
2023-03-25T12:20:36.456Z,52.0
2023-03-25T12:35:36.512Z,62.0
2023-03-25T12:50:36.519Z,54.0
2023-03-25T13:05:36.547Z,49.0
2023-03-25T13:20:36.573Z,51.0
2023-03-25T13:35:36.601Z,54.0
2023-03-25T13:50:36.628Z,51.0
2023-03-25T14:05:36.680Z,49.0
2023-03-25T14:20:36.670Z,59.0
2023-03-25T14:35:36.736Z,64.0
2023-03-25T14:50:36.660Z,65.0
2023-03-25T15:05:36.729Z,65.0
2023-03-25T15:20:36.668Z,66.0
2023-03-25T15:35:36.693Z,69.0
2023-03-25T15:50:36.702Z,77.0
2023-03-25T16:06:36.699Z,78.0
2023-03-25T16:22:36.731Z,79.0
2023-03-25T16:37:36.727Z,79.0
2023-03-25T16:52:36.762Z,80.0
2023-03-25T17:07:36.802Z,81.0
2023-03-25T17:22:36.873Z,82.0
2023-03-25T17:37:36.797Z,83.0
2023-03-25T17:52:36.816Z,86.0
2023-03-25T18:07:36.824Z,84.0
2023-03-25T18:21:36.852Z,83.0
2023-03-25T18:35:36.869Z,82.0
2023-03-25T18:50:36.879Z,82.0
2023-03-25T19:04:36.890Z,83.0
2023-03-25T19:18:36.894Z,83.0
2023-03-25T19:32:36.928Z,82.0
2023-03-25T19:46:36.998Z,85.0
2023-03-25T20:00:36.947Z,87.0
2023-03-25T20:14:37.000Z,88.0
2023-03-25T20:28:37.039Z,90.0
2023-03-25T20:42:37.023Z,91.0
2023-03-25T20:56:37.042Z,92.0
2023-03-25T21:10:37.034Z,92.0
2023-03-25T21:24:37.055Z,92.0
2023-03-25T21:38:37.083Z,93.0
2023-03-25T21:52:37.107Z,93.0
2023-03-25T22:06:37.098Z,93.0
2023-03-25T22:20:37.114Z,94.0
2023-03-25T22:34:37.098Z,93.0
2023-03-25T22:48:37.112Z,91.0
2023-03-25T23:02:37.158Z,92.0
2023-03-25T23:16:37.232Z,92.0
2023-03-25T23:30:37.186Z,92.0
2023-03-25T23:44:37.185Z,92.0
2023-03-25T23:58:37.182Z,92.0
